Time;durP1;ratioP1;P1;durP2;ratioP2;P2;SDS_P1;SDS_P2;PMS_P1;PMS_P2;Temp;Humidity;BMP_temperature;BMP_pressure;BME280_temperature;BME280_humidity;BME280_pressure;Samples;Min_cycle;Max_cycle;Signal;HPM_P1;HPM_P2
2023/08/17 00:02:15;;;;;;;6.43;2.60;;;21.90;99.90;;;;;;5013980;28;20033;-39
2023/08/17 00:04:40;;;;;;;4.50;2.35;;;21.90;99.90;;;;;;5014064;28;20030;-41
2023/08/17 00:07:06;;;;;;;5.95;2.72;;;21.90;99.90;;;;;;5014020;28;20105;-40
2023/08/17 00:09:32;;;;;;;6.70;2.55;;;21.90;99.90;;;;;;5013740;28;20451;-39
2023/08/17 00:11:58;;;;;;;3.30;2.45;;;21.90;99.90;;;;;;5013982;28;20028;-39
2023/08/17 00:14:24;;;;;;;7.88;2.65;;;21.90;99.90;;;;;;5013194;28;20065;-39
2023/08/17 00:16:52;;;;;;;4.93;2.70;;;21.90;99.90;;;;;;5013792;28;20080;-41
2023/08/17 00:19:18;;;;;;;3.40;2.42;;;21.90;99.90;;;;;;5013859;28;20073;-40
2023/08/17 00:21:45;;;;;;;3.75;2.38;;;21.90;99.90;;;;;;5013795;28;20057;-40
2023/08/17 00:24:10;;;;;;;7.93;2.55;;;21.90;99.90;;;;;;5013509;28;20113;-45
2023/08/17 00:26:37;;;;;;;3.28;2.50;;;21.90;99.90;;;;;;5013649;28;20109;-46
2023/08/17 00:29:03;;;;;;;2.70;2.45;;;21.90;99.90;;;;;;5013139;28;20033;-41
2023/08/17 00:31:29;;;;;;;5.30;2.40;;;21.90;99.90;;;;;;5013703;28;20157;-39
2023/08/17 00:33:55;;;;;;;4.38;2.47;;;21.90;99.90;;;;;;5013510;28;20073;-39
2023/08/17 00:36:20;;;;;;;5.15;2.72;;;21.90;99.90;;;;;;5013512;28;20060;-36
2023/08/17 00:38:46;;;;;;;3.55;2.67;;;21.90;99.90;;;;;;5013152;28;20091;-40
2023/08/17 00:41:12;;;;;;;3.38;2.20;;;21.90;99.90;;;;;;5013173;28;20050;-41
2023/08/17 00:43:37;;;;;;;4.68;2.60;;;21.90;99.90;;;;;;5013253;28;20510;-41
2023/08/17 00:46:03;;;;;;;5.20;2.47;;;21.90;99.90;;;;;;5013298;28;20026;-38
2023/08/17 00:48:31;;;;;;;6.05;2.53;;;21.90;99.90;;;;;;5013305;28;20022;-39
2023/08/17 00:50:59;;;;;;;3.25;2.50;;;21.90;99.90;;;;;;5012925;28;20029;-40
2023/08/17 00:53:29;;;;;;;3.03;2.63;;;21.90;99.90;;;;;;5013206;28;20048;-42
2023/08/17 00:55:55;;;;;;;7.32;2.85;;;21.80;99.90;;;;;;5013368;28;20014;-38
2023/08/17 00:58:21;;;;;;;3.03;2.25;;;21.90;99.90;;;;;;4995546;28;20029;-39
2023/08/17 01:00:47;;;;;;;4.13;2.50;;;21.90;99.90;;;;;;4995055;28;20061;-39
2023/08/17 01:03:14;;;;;;;3.30;2.67;;;21.80;99.90;;;;;;5012852;28;20108;-40
2023/08/17 01:05:40;;;;;;;3.20;2.63;;;21.90;99.90;;;;;;5013350;28;20026;-37
2023/08/17 01:08:06;;;;;;;3.92;2.80;;;21.90;99.90;;;;;;5013090;28;20033;-39
2023/08/17 01:10:43;;;;;;;4.30;2.63;;;21.90;99.90;;;;;;5012538;28;20018;-40
2023/08/17 01:13:15;;;;;;;3.88;2.80;;;21.90;99.90;;;;;;5012727;28;20068;-40
2023/08/17 01:15:50;;;;;;;4.70;3.08;;;21.80;99.90;;;;;;5012734;28;20033;-36
2023/08/17 01:18:26;;;;;;;3.85;3.05;;;21.80;99.90;;;;;;5012628;28;20037;-40
2023/08/17 01:20:53;;;;;;;4.28;3.03;;;21.80;99.90;;;;;;5012680;28;20017;-39
2023/08/17 01:23:19;;;;;;;5.90;3.00;;;21.80;99.90;;;;;;5012569;28;20026;-41
2023/08/17 01:25:45;;;;;;;5.25;3.08;;;21.80;99.90;;;;;;5011621;28;20105;-36
2023/08/17 01:28:10;;;;;;;3.90;3.53;;;21.80;99.90;;;;;;5012525;28;20124;-40
2023/08/17 01:31:10;;;;;;;4.65;3.20;;;21.80;99.90;;;;;;4995105;28;20047;-40
2023/08/17 01:33:44;;;;;;;4.30;3.40;;;21.80;99.90;;;;;;5012465;28;20038;-39
2023/08/17 01:36:26;;;;;;;5.47;4.28;;;21.80;99.90;;;;;;5012432;28;20029;-39
2023/08/17 01:38:54;;;;;;;6.78;3.25;;;21.80;99.90;;;;;;5012104;28;20026;-41
2023/08/17 01:41:22;;;;;;;4.60;3.10;;;21.80;99.90;;;;;;5012174;28;20330;-40
2023/08/17 01:43:48;;;;;;;4.43;3.35;;;21.80;99.90;;;;;;4994905;28;20026;-40
2023/08/17 01:46:17;;;;;;;3.67;3.35;;;21.80;99.90;;;;;;5012426;28;20488;-39
2023/08/17 01:48:44;;;;;;;4.80;2.90;;;21.80;99.90;;;;;;5012099;28;20029;-39
2023/08/17 01:51:11;;;;;;;3.97;3.17;;;21.80;99.90;;;;;;5011851;28;20037;-39
2023/08/17 01:53:37;;;;;;;5.80;3.10;;;21.80;99.90;;;;;;5011930;28;20105;-39
2023/08/17 01:56:03;;;;;;;4.53;3.20;;;21.80;99.90;;;;;;5012069;28;20114;-40
2023/08/17 01:58:28;;;;;;;3.83;3.28;;;21.80;99.90;;;;;;5012067;28;20096;-36
2023/08/17 02:00:54;;;;;;;5.63;3.50;;;21.80;99.90;;;;;;5011803;28;20022;-37
2023/08/17 02:03:19;;;;;;;4.28;3.30;;;21.80;99.90;;;;;;5011937;28;20037;-38
2023/08/17 02:05:46;;;;;;;4.05;3.22;;;21.80;99.90;;;;;;5011917;28;20072;-40
2023/08/17 02:08:12;;;;;;;3.58;3.05;;;21.80;99.90;;;;;;5011781;28;20018;-41
2023/08/17 02:10:38;;;;;;;3.53;3.15;;;21.80;99.90;;;;;;5011575;28;20438;-38
2023/08/17 02:13:04;;;;;;;4.57;3.03;;;21.80;99.90;;;;;;5011778;28;20478;-40
2023/08/17 02:15:29;;;;;;;4.05;3.20;;;21.80;99.90;;;;;;5011711;28;20065;-42
2023/08/17 02:17:57;;;;;;;2.97;2.70;;;21.80;99.90;;;;;;5011669;28;20065;-40
2023/08/17 02:20:22;;;;;;;3.38;3.08;;;21.80;99.90;;;;;;5011434;28;20056;-39
2023/08/17 02:22:48;;;;;;;3.40;3.00;;;21.80;99.90;;;;;;5011503;28;20061;-39
2023/08/17 02:25:14;;;;;;;5.82;2.80;;;21.80;99.90;;;;;;5011678;28;20031;-41
2023/08/17 02:27:39;;;;;;;3.15;2.63;;;21.80;99.90;;;;;;5011838;28;20053;-37
2023/08/17 02:30:05;;;;;;;4.82;2.72;;;21.80;99.90;;;;;;5011242;28;20034;-40
2023/08/17 02:32:31;;;;;;;2.90;2.60;;;21.80;99.90;;;;;;5011654;28;20101;-43
2023/08/17 02:34:57;;;;;;;5.18;2.25;;;21.80;99.90;;;;;;5011656;28;20104;-41
2023/08/17 02:37:22;;;;;;;3.10;2.42;;;21.80;99.90;;;;;;5011006;28;20041;-41
2023/08/17 02:39:48;;;;;;;3.95;2.85;;;21.80;99.90;;;;;;4993851;28;20038;-42
2023/08/17 02:42:13;;;;;;;3.95;2.70;;;21.80;99.90;;;;;;5011465;28;20025;-42
2023/08/17 02:44:39;;;;;;;5.13;2.72;;;21.80;99.90;;;;;;5011254;28;20026;-40
2023/08/17 02:47:05;;;;;;;3.10;2.80;;;21.80;99.90;;;;;;5011440;28;20069;-41
2023/08/17 02:49:30;;;;;;;4.57;2.92;;;21.80;99.90;;;;;;5011143;28;20038;-41
2023/08/17 02:51:56;;;;;;;2.85;2.55;;;21.80;99.90;;;;;;5011278;28;20025;-43
2023/08/17 02:54:22;;;;;;;4.20;2.80;;;21.80;99.90;;;;;;5011989;28;20030;-40
2023/08/17 02:56:47;;;;;;;3.42;2.70;;;21.80;99.90;;;;;;5011338;28;20030;-39
2023/08/17 02:59:13;;;;;;;4.45;2.80;;;21.80;99.90;;;;;;5011041;28;20061;-39
2023/08/17 03:01:39;;;;;;;2.75;2.55;;;21.80;99.90;;;;;;5012014;28;20029;-39
2023/08/17 03:04:05;;;;;;;3.10;2.67;;;21.80;99.90;;;;;;5011419;28;20022;-39
2023/08/17 03:06:30;;;;;;;3.13;2.80;;;21.80;99.90;;;;;;5011229;28;20117;-42
2023/08/17 03:08:56;;;;;;;2.78;2.40;;;21.80;99.90;;;;;;4993485;28;20598;-42
2023/08/17 03:11:21;;;;;;;3.67;2.70;;;21.70;99.90;;;;;;5011216;28;20028;-43
2023/08/17 03:13:48;;;;;;;3.53;2.60;;;21.80;99.90;;;;;;5011163;28;20026;-41
2023/08/17 03:16:15;;;;;;;3.05;2.53;;;21.80;99.90;;;;;;5011264;28;20034;-41
2023/08/17 03:18:41;;;;;;;2.78;2.38;;;21.80;99.90;;;;;;4993666;28;20056;-40
2023/08/17 03:21:06;;;;;;;3.22;2.67;;;21.70;99.90;;;;;;5010791;28;20468;-39
2023/08/17 03:23:32;;;;;;;2.42;2.22;;;21.70;99.90;;;;;;5011036;28;20037;-39
2023/08/17 03:25:58;;;;;;;5.03;2.67;;;21.70;99.90;;;;;;5011143;28;20307;-39
2023/08/17 03:28:25;;;;;;;2.92;2.58;;;21.70;99.90;;;;;;4993409;28;20033;-39
2023/08/17 03:30:55;;;;;;;5.10;2.42;;;21.70;99.90;;;;;;5010670;28;20037;-40
2023/08/17 03:33:20;;;;;;;4.70;2.50;;;21.70;99.90;;;;;;5011007;28;20407;-42
2023/08/17 03:35:46;;;;;;;5.82;2.40;;;21.70;99.90;;;;;;5010889;28;20022;-40
2023/08/17 03:38:12;;;;;;;3.53;2.45;;;21.70;99.90;;;;;;5010976;28;20037;-40
2023/08/17 03:40:37;;;;;;;4.63;2.35;;;21.70;99.90;;;;;;5010732;28;20041;-41
2023/08/17 03:43:03;;;;;;;8.55;2.60;;;21.70;99.90;;;;;;5010845;28;20109;-43
2023/08/17 03:45:30;;;;;;;4.82;2.70;;;21.70;99.90;;;;;;5010912;28;20084;-37
2023/08/17 03:47:56;;;;;;;5.90;2.50;;;21.70;99.90;;;;;;5011337;28;20479;-39
2023/08/17 03:50:22;;;;;;;5.03;2.20;;;21.70;99.90;;;;;;5013844;28;20109;-40
2023/08/17 03:52:47;;;;;;;6.35;2.42;;;21.70;99.90;;;;;;5014312;28;20431;-44
2023/08/17 03:55:13;;;;;;;3.88;2.78;;;21.70;99.90;;;;;;5014327;28;20198;-41
2023/08/17 03:57:38;;;;;;;4.47;2.70;;;21.70;99.90;;;;;;5014150;28;20057;-43
2023/08/17 04:00:06;;;;;;;7.88;2.63;;;21.70;99.90;;;;;;5013884;28;20416;-40
2023/08/17 04:02:31;;;;;;;5.18;2.63;;;21.70;99.90;;;;;;5013925;28;20577;-39
2023/08/17 04:04:57;;;;;;;5.93;2.92;;;21.70;99.90;;;;;;5013943;28;20034;-42
2023/08/17 04:07:23;;;;;;;4.78;2.70;;;21.70;99.90;;;;;;5014036;28;20033;-41
2023/08/17 04:09:49;;;;;;;3.83;2.42;;;21.70;99.90;;;;;;5013669;28;20018;-39
2023/08/17 04:12:14;;;;;;;6.93;2.90;;;21.70;99.90;;;;;;5014271;28;20068;-41
2023/08/17 04:14:40;;;;;;;4.90;2.78;;;21.70;99.90;;;;;;5013922;28;20365;-44
2023/08/17 04:17:06;;;;;;;4.40;2.50;;;21.70;99.90;;;;;;4996220;28;20033;-39
2023/08/17 04:19:32;;;;;;;6.75;3.15;;;21.70;99.90;;;;;;4995829;28;20105;-43
2023/08/17 04:21:58;;;;;;;4.13;2.80;;;21.70;99.90;;;;;;5014035;28;20590;-41
2023/08/17 04:24:24;;;;;;;4.32;3.00;;;21.70;99.90;;;;;;5013707;28;20099;-43
2023/08/17 04:26:49;;;;;;;4.90;2.47;;;21.70;99.90;;;;;;5013886;28;20384;-39
2023/08/17 04:29:15;;;;;;;3.85;2.63;;;21.60;99.90;;;;;;5013259;28;20026;-39
2023/08/17 04:31:41;;;;;;;5.13;2.88;;;21.70;99.90;;;;;;5013928;28;20030;-39
2023/08/17 04:34:06;;;;;;;4.15;3.20;;;21.70;99.90;;;;;;5013370;28;20030;-41
2023/08/17 04:36:32;;;;;;;6.00;3.13;;;21.70;99.90;;;;;;5013511;28;20034;-35
2023/08/17 04:38:58;;;;;;;4.68;3.53;;;21.60;99.90;;;;;;5013232;28;20030;-39
2023/08/17 04:41:23;;;;;;;4.38;3.00;;;21.70;99.90;;;;;;5013488;28;20391;-41
2023/08/17 04:43:49;;;;;;;4.10;3.22;;;21.60;99.90;;;;;;5013700;28;20025;-40
2023/08/17 04:46:15;;;;;;;4.13;3.10;;;21.70;99.90;;;;;;5013241;28;20026;-39
2023/08/17 04:48:40;;;;;;;4.38;3.00;;;21.60;99.90;;;;;;5013094;28;20025;-41
2023/08/17 04:51:06;;;;;;;3.63;2.70;;;21.60;99.90;;;;;;5013028;28;20092;-41
2023/08/17 04:53:32;;;;;;;4.03;3.05;;;21.60;99.90;;;;;;5013147;28;20100;-40
2023/08/17 04:55:59;;;;;;;3.17;2.50;;;21.60;99.90;;;;;;5013051;28;20565;-36
2023/08/17 04:58:25;;;;;;;3.17;2.38;;;21.60;99.90;;;;;;5013059;28;20145;-42
2023/08/17 05:00:51;;;;;;;4.82;2.58;;;21.60;99.90;;;;;;4994825;28;20497;-40
2023/08/17 05:03:16;;;;;;;3.22;2.63;;;21.60;99.90;;;;;;5012755;28;20050;-43
2023/08/17 05:05:42;;;;;;;3.13;2.45;;;21.70;99.90;;;;;;5012990;28;20180;-39
2023/08/17 05:08:08;;;;;;;5.63;2.92;;;21.60;99.90;;;;;;5012953;28;20533;-37
2023/08/17 05:10:34;;;;;;;3.00;2.70;;;21.60;99.90;;;;;;5012820;28;20026;-37
2023/08/17 05:12:59;;;;;;;3.08;2.60;;;21.60;99.90;;;;;;5012883;28;20022;-42
2023/08/17 05:15:25;;;;;;;2.75;2.13;;;21.60;99.90;;;;;;5012808;28;20682;-40
2023/08/17 05:17:50;;;;;;;2.75;2.33;;;21.60;99.90;;;;;;5013128;28;20042;-39
2023/08/17 05:20:16;;;;;;;2.88;1.90;;;21.60;99.90;;;;;;5012543;28;20065;-39
2023/08/17 05:22:42;;;;;;;2.28;2.08;;;21.60;99.90;;;;;;5012508;28;20037;-38
2023/08/17 05:25:08;;;;;;;3.20;2.45;;;21.60;99.90;;;;;;5012580;28;20471;-40
2023/08/17 05:27:34;;;;;;;2.38;2.10;;;21.60;99.90;;;;;;5012557;28;20030;-39
2023/08/17 05:29:59;;;;;;;3.65;2.10;;;21.60;99.90;;;;;;5012167;28;20033;-41
2023/08/17 05:32:25;;;;;;;2.28;1.98;;;21.60;99.90;;;;;;4994803;28;20472;-40
2023/08/17 05:34:50;;;;;;;2.72;2.10;;;21.60;99.90;;;;;;5012433;28;20160;-37
2023/08/17 05:37:16;;;;;;;2.42;2.13;;;21.60;99.90;;;;;;5012457;28;20496;-38
2023/08/17 05:39:42;;;;;;;2.40;2.20;;;21.60;99.90;;;;;;5012419;28;20112;-40
2023/08/17 05:42:09;;;;;;;2.17;1.98;;;21.60;99.90;;;;;;5012392;28;20565;-40
2023/08/17 05:44:35;;;;;;;2.42;2.10;;;21.60;99.90;;;;;;5012250;28;20114;-40
2023/08/17 05:47:01;;;;;;;2.35;1.90;;;21.60;99.90;;;;;;5012072;28;20057;-42
2023/08/17 05:49:26;;;;;;;3.30;2.20;;;21.60;99.90;;;;;;5011894;28;20428;-41
2023/08/17 05:51:52;;;;;;;2.30;2.10;;;21.60;99.90;;;;;;5012204;28;20022;-36
2023/08/17 05:54:18;;;;;;;2.25;2.05;;;21.60;99.90;;;;;;5012052;28;20553;-40
2023/08/17 05:56:46;;;;;;;2.30;1.92;;;21.60;99.90;;;;;;5012067;28;20113;-39
2023/08/17 05:59:12;;;;;;;2.00;1.80;;;21.60;99.90;;;;;;4994139;28;20049;-40
2023/08/17 06:01:38;;;;;;;2.25;1.77;;;21.60;99.90;;;;;;5011855;28;20444;-41
2023/08/17 06:04:04;;;;;;;1.98;1.80;;;21.60;99.90;;;;;;5012175;28;20029;-43
2023/08/17 06:06:30;;;;;;;2.35;2.13;;;21.60;99.90;;;;;;4994329;28;20104;-40
2023/08/17 06:08:56;;;;;;;2.08;1.92;;;21.60;99.90;;;;;;5011916;28;20444;-41
2023/08/17 06:11:21;;;;;;;2.13;1.92;;;21.60;99.90;;;;;;5011203;28;20037;-39
2023/08/17 06:13:47;;;;;;;1.98;1.70;;;21.60;99.90;;;;;;5011747;28;20033;-37
2023/08/17 06:16:12;;;;;;;2.15;1.80;;;21.60;99.90;;;;;;5011677;28;20022;-40
2023/08/17 06:18:39;;;;;;;2.90;1.83;;;21.60;99.90;;;;;;5011774;28;20455;-39
2023/08/17 06:21:04;;;;;;;1.90;1.80;;;21.60;99.90;;;;;;4993849;28;20073;-41
2023/08/17 06:23:30;;;;;;;1.55;1.42;;;21.60;99.90;;;;;;5011561;28;20049;-38
2023/08/17 06:25:59;;;;;;;1.63;1.50;;;21.60;99.90;;;;;;5011631;28;20053;-41
2023/08/17 06:28:25;;;;;;;1.92;1.60;;;21.60;99.90;;;;;;5011744;28;20022;-41
2023/08/17 06:30:55;;;;;;;1.63;1.52;;;21.60;99.90;;;;;;5011167;28;20044;-41
2023/08/17 06:33:21;;;;;;;1.83;1.73;;;21.60;99.90;;;;;;5011575;28;20395;-42
2023/08/17 06:35:48;;;;;;;1.70;1.60;;;21.60;99.90;;;;;;5011688;28;20487;-40
2023/08/17 06:38:13;;;;;;;2.05;1.90;;;21.60;99.90;;;;;;5011433;28;20403;-37
2023/08/17 06:40:39;;;;;;;1.90;1.77;;;21.60;99.90;;;;;;5011215;28;20109;-45
2023/08/17 06:43:05;;;;;;;1.83;1.73;;;21.60;99.90;;;;;;5011559;28;20026;-40
2023/08/17 06:45:34;;;;;;;3.15;1.80;;;21.60;99.90;;;;;;5011445;28;20061;-40
2023/08/17 06:47:59;;;;;;;1.73;1.63;;;21.60;99.90;;;;;;5011490;28;20491;-37
2023/08/17 06:50:26;;;;;;;1.60;1.50;;;21.60;99.90;;;;;;5011371;28;20033;-41
2023/08/17 06:52:52;;;;;;;2.30;1.80;;;21.60;99.90;;;;;;5011371;28;20026;-40
2023/08/17 06:55:18;;;;;;;2.03;1.63;;;21.60;99.90;;;;;;5011697;28;20029;-36
2023/08/17 06:57:44;;;;;;;1.60;1.50;;;21.60;99.90;;;;;;5011642;28;20022;-39
2023/08/17 07:00:11;;;;;;;1.70;1.23;;;21.60;99.90;;;;;;5011131;28;20030;-39
2023/08/17 07:02:37;;;;;;;1.63;1.52;;;21.60;99.90;;;;;;5011640;28;20358;-39
2023/08/17 07:05:03;;;;;;;1.67;1.50;;;21.60;99.90;;;;;;5011318;28;20032;-41
2023/08/17 07:07:31;;;;;;;1.77;1.63;;;21.60;99.90;;;;;;5011249;28;20026;-38
2023/08/17 07:09:57;;;;;;;1.50;1.40;;;21.60;99.90;;;;;;5011854;28;20018;-41
2023/08/17 07:12:24;;;;;;;1.70;1.60;;;21.60;99.90;;;;;;5011142;28;20041;-39
2023/08/17 07:14:50;;;;;;;1.60;1.50;;;21.60;99.90;;;;;;5011194;28;20451;-40
2023/08/17 07:17:16;;;;;;;2.30;1.70;;;21.60;99.90;;;;;;5011014;28;20442;-42
2023/08/17 07:19:42;;;;;;;1.70;1.40;;;21.60;99.90;;;;;;5010813;28;20030;-39
2023/08/17 07:22:07;;;;;;;1.58;1.48;;;21.60;99.90;;;;;;5011249;28;20026;-41
2023/08/17 07:24:33;;;;;;;1.55;1.45;;;21.60;99.90;;;;;;5015460;28;20033;-41
2023/08/17 07:26:58;;;;;;;1.73;1.63;;;21.60;99.90;;;;;;5014736;28;20026;-40
2023/08/17 07:29:24;;;;;;;3.33;1.58;;;21.60;99.90;;;;;;5014615;28;20387;-40
2023/08/17 07:31:49;;;;;;;1.67;1.42;;;21.60;99.90;;;;;;5015458;28;20472;-37
2023/08/17 07:34:15;;;;;;;1.27;1.17;;;21.60;99.90;;;;;;5014693;28;20561;-41
2023/08/17 07:36:41;;;;;;;1.50;1.40;;;21.60;99.90;;;;;;5014968;28;20045;-41
2023/08/17 07:39:07;;;;;;;1.42;1.33;;;21.60;99.90;;;;;;5014323;28;20502;-40
2023/08/17 07:41:32;;;;;;;1.30;1.20;;;21.60;99.90;;;;;;5014442;28;20026;-37
2023/08/17 07:43:58;;;;;;;1.63;1.40;;;21.60;99.90;;;;;;5014418;28;20070;-39
2023/08/17 07:46:24;;;;;;;1.92;1.60;;;21.60;99.90;;;;;;5014428;28;20022;-39
2023/08/17 07:48:50;;;;;;;1.50;1.40;;;21.60;99.90;;;;;;5014714;28;20022;-39
2023/08/17 07:51:15;;;;;;;1.83;1.65;;;21.60;99.90;;;;;;5014196;28;20452;-40
2023/08/17 07:53:41;;;;;;;1.58;1.48;;;21.60;99.90;;;;;;5014346;28;20521;-39
2023/08/17 07:56:07;;;;;;;1.55;1.45;;;21.70;99.90;;;;;;5014218;28;20036;-41
2023/08/17 07:58:32;;;;;;;1.80;1.65;;;21.70;99.90;;;;;;5014239;28;20108;-36
2023/08/17 08:00:58;;;;;;;2.78;1.70;;;21.70;99.90;;;;;;5013988;28;20105;-41
2023/08/17 08:03:23;;;;;;;1.60;1.50;;;21.70;99.90;;;;;;5014068;28;20026;-36
2023/08/17 08:05:49;;;;;;;3.38;1.50;;;21.70;99.90;;;;;;5014126;28;20033;-36
2023/08/17 08:08:17;;;;;;;1.92;1.67;;;21.70;99.90;;;;;;5014172;28;20037;-39
2023/08/17 08:10:43;;;;;;;1.55;1.40;;;21.70;99.90;;;;;;5013711;28;20033;-43
2023/08/17 08:13:08;;;;;;;1.63;1.50;;;21.70;99.90;;;;;;5014047;28;20105;-41
2023/08/17 08:15:34;;;;;;;3.75;1.40;;;21.70;99.90;;;;;;5013994;28;20033;-39
2023/08/17 08:17:59;;;;;;;1.67;1.50;;;21.70;99.90;;;;;;5013908;28;20022;-39
2023/08/17 08:20:25;;;;;;;1.48;1.38;;;21.70;99.90;;;;;;5013660;28;20056;-40
2023/08/17 08:22:51;;;;;;;1.90;1.65;;;21.70;99.90;;;;;;5013827;28;20032;-41
2023/08/17 08:25:16;;;;;;;1.80;1.48;;;21.70;99.90;;;;;;5013926;28;20026;-37
2023/08/17 08:27:42;;;;;;;1.50;1.40;;;21.70;99.90;;;;;;5013744;28;20088;-42
2023/08/17 08:30:08;;;;;;;1.75;1.55;;;21.70;99.90;;;;;;5013303;28;20041;-39
2023/08/17 08:32:33;;;;;;;1.23;1.08;;;21.70;99.90;;;;;;5013645;28;20026;-39
2023/08/17 08:34:59;;;;;;;1.42;1.30;;;21.80;99.90;;;;;;4995353;28;20109;-40
2023/08/17 08:37:25;;;;;;;1.20;1.10;;;21.80;99.90;;;;;;5013505;28;20492;-39
2023/08/17 08:39:55;;;;;;;1.40;1.30;;;21.80;99.90;;;;;;5013079;28;20025;-39
2023/08/17 08:42:22;;;;;;;1.10;1.00;;;21.80;99.90;;;;;;5013368;28;20033;-41
2023/08/17 08:44:49;;;;;;;1.20;1.10;;;21.80;99.90;;;;;;5013283;28;20054;-40
2023/08/17 08:47:17;;;;;;;1.33;1.23;;;21.80;99.90;;;;;;5013572;28;20065;-37
2023/08/17 08:49:52;;;;;;;1.58;1.38;;;21.80;99.90;;;;;;5012994;28;20026;-39
2023/08/17 08:52:23;;;;;;;1.58;1.25;;;21.80;99.90;;;;;;5013183;28;20034;-40
2023/08/17 08:54:51;;;;;;;1.38;1.10;;;21.80;99.90;;;;;;5013493;28;20040;-42
2023/08/17 08:57:17;;;;;;;1.20;1.10;;;21.80;99.90;;;;;;5013184;28;20034;-39
2023/08/17 08:59:46;;;;;;;1.40;1.27;;;21.80;99.90;;;;;;5013103;28;20030;-41
2023/08/17 09:02:16;;;;;;;1.27;1.17;;;21.80;99.90;;;;;;5013123;28;20018;-39
2023/08/17 09:04:45;;;;;;;0.95;0.88;;;21.80;99.90;;;;;;5012943;28;20030;-37
2023/08/17 09:07:12;;;;;;;1.23;1.13;;;21.80;99.90;;;;;;5012991;28;20030;-42
2023/08/17 09:09:38;;;;;;;1.30;1.20;;;21.80;99.90;;;;;;5012694;28;20018;-37
2023/08/17 09:12:11;;;;;;;1.25;1.15;;;21.90;99.90;;;;;;5012911;28;20026;-42
2023/08/17 09:14:37;;;;;;;1.38;1.20;;;21.90;99.90;;;;;;5012861;28;20092;-44
2023/08/17 09:17:03;;;;;;;1.10;1.00;;;21.90;99.90;;;;;;5012959;28;20018;-39
2023/08/17 09:19:32;;;;;;;1.45;1.30;;;21.90;99.90;;;;;;5012322;28;20458;-42
2023/08/17 09:21:57;;;;;;;1.67;1.30;;;21.90;99.90;;;;;;5012804;28;20022;-39
2023/08/17 09:24:23;;;;;;;1.27;1.17;;;21.90;99.90;;;;;;5012748;28;20030;-43
2023/08/17 09:26:49;;;;;;;1.48;1.30;;;21.90;99.90;;;;;;5012713;28;20021;-36
2023/08/17 09:29:19;;;;;;;1.40;1.23;;;21.90;99.90;;;;;;5012210;28;20116;-36
2023/08/17 09:31:46;;;;;;;1.55;1.20;;;21.90;99.90;;;;;;5012919;28;20033;-44
2023/08/17 09:34:14;;;;;;;1.30;1.10;;;21.90;99.90;;;;;;5012322;28;20100;-41
2023/08/17 09:36:40;;;;;;;1.15;1.05;;;21.90;99.90;;;;;;5012509;28;20525;-40
2023/08/17 09:39:06;;;;;;;1.25;1.15;;;21.90;99.90;;;;;;5012107;28;20053;-40
2023/08/17 09:41:39;;;;;;;1.58;1.27;;;21.90;99.90;;;;;;5012372;28;20415;-39
2023/08/17 09:44:06;;;;;;;1.20;1.10;;;21.90;99.90;;;;;;5012272;28;20026;-44
2023/08/17 09:46:32;;;;;;;1.23;1.10;;;21.90;99.90;;;;;;5011274;28;20105;-40
2023/08/17 09:48:57;;;;;;;1.48;1.30;;;21.90;99.90;;;;;;5012027;28;20465;-40
2023/08/17 09:51:24;;;;;;;1.58;1.40;;;21.90;99.90;;;;;;5012387;28;20503;-38
2023/08/17 09:53:53;;;;;;;1.50;1.40;;;21.90;99.90;;;;;;5012160;28;20380;-41
2023/08/17 09:56:23;;;;;;;1.67;1.58;;;21.90;99.90;;;;;;5012361;28;20472;-39
2023/08/17 09:58:49;;;;;;;1.55;1.45;;;21.90;99.90;;;;;;5011946;28;20042;-41
2023/08/17 10:01:15;;;;;;;1.50;1.40;;;21.90;99.90;;;;;;5011885;28;20114;-39
2023/08/17 10:03:45;;;;;;;1.48;1.30;;;21.90;99.90;;;;;;5011969;28;20029;-41
2023/08/17 10:06:14;;;;;;;2.20;1.50;;;21.90;99.90;;;;;;5012065;28;20072;-41
2023/08/17 10:08:43;;;;;;;2.25;1.50;;;21.90;99.90;;;;;;5011839;28;20372;-41
2023/08/17 10:11:10;;;;;;;2.03;1.40;;;22.00;99.90;;;;;;5011687;28;20558;-43
2023/08/17 10:13:42;;;;;;;1.50;1.38;;;22.00;99.90;;;;;;5011694;28;20026;-40
2023/08/17 10:16:24;;;;;;;1.40;1.30;;;22.00;99.90;;;;;;4994263;28;20117;-40
2023/08/17 10:18:57;;;;;;;1.50;1.40;;;22.00;99.90;;;;;;5011599;28;20523;-39
2023/08/17 10:21:39;;;;;;;1.88;1.38;;;22.00;99.90;;;;;;5011832;28;20094;-40
2023/08/17 10:24:07;;;;;;;1.75;1.42;;;22.00;99.90;;;;;;5011500;28;20487;-41
2023/08/17 10:26:33;;;;;;;1.48;1.35;;;22.00;99.90;;;;;;5011726;28;20030;-44
2023/08/17 10:29:01;;;;;;;1.50;1.40;;;22.00;99.90;;;;;;5011354;28;20033;-41
2023/08/17 10:31:28;;;;;;;1.48;1.30;;;22.00;99.90;;;;;;5011917;28;20049;-40
2023/08/17 10:33:55;;;;;;;1.85;1.33;;;22.00;99.90;;;;;;5011557;28;20026;-42
2023/08/17 10:36:21;;;;;;;1.88;1.60;;;22.00;99.90;;;;;;5011689;28;20472;-41
2023/08/17 10:38:47;;;;;;;1.90;1.70;;;22.00;99.90;;;;;;5011381;28;20033;-42
2023/08/17 10:41:14;;;;;;;2.03;1.58;;;22.00;99.90;;;;;;5011485;28;20033;-40
2023/08/17 10:43:59;;;;;;;1.90;1.70;;;22.10;99.90;;;;;;5011492;28;20117;-36
2023/08/17 10:46:39;;;;;;;1.50;1.40;;;22.10;99.90;;;;;;5011506;28;20480;-40
2023/08/17 10:49:05;;;;;;;1.60;1.50;;;22.10;99.90;;;;;;5011077;28;20058;-45
2023/08/17 10:51:32;;;;;;;1.73;1.60;;;22.10;99.90;;;;;;5011454;28;20040;-39
2023/08/17 10:54:00;;;;;;;2.05;1.67;;;22.10;99.90;;;;;;5011404;28;20033;-42
2023/08/17 10:56:30;;;;;;;2.72;1.70;;;22.10;99.90;;;;;;5011824;28;20042;-44
2023/08/17 10:59:01;;;;;;;2.65;1.73;;;22.10;99.90;;;;;;5014399;28;20029;-42
2023/08/17 11:01:38;;;;;;;2.95;1.83;;;22.10;99.90;;;;;;5015302;28;20030;-42
2023/08/17 11:04:17;;;;;;;1.58;1.40;;;22.10;99.90;;;;;;5015240;28;20026;-44
2023/08/17 11:06:45;;;;;;;1.90;1.50;;;22.10;99.90;;;;;;5015353;28;20022;-39
2023/08/17 11:09:12;;;;;;;1.90;1.50;;;22.10;99.90;;;;;;4997248;28;20018;-36
2023/08/17 11:11:38;;;;;;;1.60;1.50;;;22.10;99.90;;;;;;5015604;28;20471;-39
2023/08/17 11:14:04;;;;;;;1.83;1.60;;;22.10;99.90;;;;;;5015158;28;20506;-37
2023/08/17 11:16:30;;;;;;;2.05;1.73;;;22.20;99.90;;;;;;4997485;28;20022;-40
2023/08/17 11:18:58;;;;;;;1.75;1.60;;;22.10;99.90;;;;;;5014951;28;20057;-37
2023/08/17 11:21:24;;;;;;;4.05;1.70;;;22.10;99.90;;;;;;5014918;28;20021;-40
2023/08/17 11:23:50;;;;;;;2.10;1.90;;;22.10;99.90;;;;;;5014811;28;20407;-40
2023/08/17 11:26:17;;;;;;;3.17;1.98;;;22.10;99.90;;;;;;5014935;28;20852;-42
2023/08/17 11:28:44;;;;;;;2.08;1.80;;;22.10;99.90;;;;;;5014374;28;20026;-42
2023/08/17 11:31:11;;;;;;;3.65;2.10;;;22.10;99.90;;;;;;5014726;28;20091;-40
2023/08/17 11:33:38;;;;;;;2.00;1.80;;;22.10;99.90;;;;;;5015198;28;20030;-39
2023/08/17 11:36:06;;;;;;;2.20;1.70;;;22.20;99.90;;;;;;5014595;28;20029;-38
2023/08/17 11:38:36;;;;;;;1.80;1.70;;;22.20;99.90;;;;;;5014695;28;20030;-40
2023/08/17 11:41:02;;;;;;;2.60;2.10;;;22.20;99.90;;;;;;4996794;28;20064;-41
2023/08/17 11:43:29;;;;;;;2.10;1.88;;;22.20;99.90;;;;;;5014406;28;20117;-41
2023/08/17 11:45:55;;;;;;;2.08;1.88;;;22.10;99.90;;;;;;5014642;28;20029;-44
2023/08/17 11:48:21;;;;;;;1.92;1.80;;;22.10;99.90;;;;;;5014468;28;20026;-40
2023/08/17 11:50:48;;;;;;;2.05;1.85;;;22.10;99.90;;;;;;5014306;28;20018;-36
2023/08/17 11:53:14;;;;;;;2.30;1.95;;;22.10;99.90;;;;;;5014434;28;20026;-39
2023/08/17 11:55:40;;;;;;;2.30;2.10;;;22.20;99.90;;;;;;5014267;28;20083;-43
2023/08/17 11:58:07;;;;;;;2.80;1.85;;;22.10;99.90;;;;;;5014284;28;20104;-38
2023/08/17 12:00:40;;;;;;;2.20;2.00;;;22.10;99.90;;;;;;5014085;28;20037;-39
2023/08/17 12:03:06;;;;;;;2.20;1.90;;;22.10;99.90;;;;;;5014155;28;20037;-41
2023/08/17 12:05:32;;;;;;;2.63;1.90;;;22.10;99.90;;;;;;5014160;28;20026;-37
2023/08/17 12:08:02;;;;;;;1.80;1.70;;;22.10;99.90;;;;;;5014102;28;20036;-41
2023/08/17 12:10:31;;;;;;;2.17;1.90;;;22.10;99.90;;;;;;5012627;28;20022;-43
2023/08/17 12:13:00;;;;;;;2.13;1.80;;;22.10;99.90;;;;;;5013996;28;20054;-38
2023/08/17 12:15:35;;;;;;;2.92;1.92;;;22.10;99.90;;;;;;5014001;28;20026;-36
2023/08/17 12:18:03;;;;;;;2.47;1.88;;;22.10;99.90;;;;;;5013988;28;20026;-40
2023/08/17 12:20:30;;;;;;;2.65;1.98;;;22.10;99.90;;;;;;5013620;28;20053;-40
2023/08/17 12:22:59;;;;;;;2.63;1.85;;;22.10;99.90;;;;;;5013634;28;20029;-39
2023/08/17 12:25:25;;;;;;;2.13;1.92;;;22.10;99.90;;;;;;5013737;28;20049;-39
2023/08/17 12:27:51;;;;;;;2.28;2.05;;;22.10;99.90;;;;;;5013750;28;20105;-43
2023/08/17 12:30:36;;;;;;;2.28;2.08;;;22.10;99.90;;;;;;5013353;28;20547;-41
2023/08/17 12:33:01;;;;;;;;;;;22.10;99.90;;;;;;5014074;28;20487;-42
2023/08/17 12:35:27;;;;;;;2.53;2.20;;;22.10;99.90;;;;;;5013424;28;19912;-36
2023/08/17 12:37:53;;;;;;;2.60;2.38;;;22.10;99.90;;;;;;5013649;28;20119;-41
2023/08/17 12:40:19;;;;;;;3.15;1.88;;;22.10;99.90;;;;;;5013258;28;20040;-36
2023/08/17 12:42:45;;;;;;;2.35;2.15;;;22.10;99.90;;;;;;5013492;28;20030;-36
2023/08/17 12:45:10;;;;;;;2.78;2.38;;;22.10;99.90;;;;;;5013366;28;20080;-41
2023/08/17 12:47:36;;;;;;;2.70;2.35;;;22.10;99.90;;;;;;5013693;28;20032;-39